Croton, Ohio
Current Conditions -  °F | °C
As of 3:55 PM on Tuesday 21 Oct 2014 (Local Time) from K4I3 Reporting Station
Overcast Overcast  
Wind Chill: 43°   Ceiling: 3400
Heat Index: 48°   Visibility: 10mi
Dew Point: 43°   Wind: 14mph
Humidity: 82%   Direction: 310°NW
Pressure: 30"   Gusts: 21mph
Location:  40.24°N, 82.7°W
Report Text: K4I3 211955Z AUTO 31012G18KT 10SM SCT018 SCT027 OVC034 09/06 A3000 RMK AO2
Loading
Personal Weather Stations






























Interactive Weather Map
Tropical Storm Tracking
New forecast layout! Learn more

10-Day Weather Forecast

Advertisements
Track Severe Weather on mobile